Chaska, MN (55318)

7:40 PM CST on February 10, 2016 (GMT -0600)
Hammers Haven | | Change Station
CLOSE
Current Station
Personal Weather Station
Location: Chaska, MN
Elevation: 935 ft
Nearby Weather Stations

Elev 935 ft 44.82 °N, 93.61 °W | Updated 12 seconds ago

Overcast
Overcast
11.3 °F
Feels Like 11 °F
N
1.0
Wind Variable Wind from NNW
Gusts 4.0 mph

Today
High -- | Low -- °F
--% Chance of Precip.
Yesterday
High -- | Low -- °F
Precip. -- in
Pressure 30.26 in
Visibility 10.0 miles
Clouds Overcast 11000 ft
Windchill 11 °F
Dew Point 0 °F
Humidity 60%
Rainfall 0.00 in
Snow Depth Not available.
7:22 AM 5:35 PM
Waxing Crescent, 8% visible
METAR KFCM 110053Z 34006KT 10SM OVC110 M11/M19 A3019 RMK AO2 SLP245 T11061194
Pressure 30.26 in
Visibility 10.0 miles
Clouds Overcast 11000 ft
Windchill 11 °F
Dew Point 0 °F
Humidity 60%
Rainfall 0.00 in
Snow Depth Not available.
7:22 AM 5:35 PM
Waxing Crescent, 8% visible
METAR KFCM 110053Z 34006KT 10SM OVC110 M11/M19 A3019 RMK AO2 SLP245 T11061194

10-Day Weather Forecast

Almanac

Astronomy

Feb. 10, 2016 Rise Set
Actual Time
Civil Twilight
Nautical Twilight
Astronomical Twilight
Moon
Length of Visible Light
Length of Day
Tomorrow will be .
, % of the Moon is Illuminated

Today's Extremes

State Highs State Lows

Community

WunderPhotos

Upload Photos

1,891,965 photos uploaded!

WunderBlog® & News

Nearby

Air Quality

  Air Quality AQ Index Pollutant
Not available.

Snow Depth

Station Depth Elevation

Earthquake Activity

City Distance Mag. Time & Date
Minimum magnitude displayed is 2.5.

Coastal Water Temperatures

Place Temperature

Stations

Nearby Weather Stations

Station Location Temp. Windchill Dew Point Humidity Wind Precip. Elev Updated Type
                   

Watches & Warnings

There are currently no watches in effect.